Time;durP1;ratioP1;P1;durP2;ratioP2;P2;SDS_P1;SDS_P2;PMS_P1;PMS_P2;Temp;Humidity;BMP_temperature;BMP_pressure;BME280_temperature;BME280_humidity;BME280_pressure;Samples;Min_cycle;Max_cycle;Signal;HPM_P1;HPM_P2
2022/11/23 00:01:21;;;;;;;;;;;8.40;99.90;;;;;;4999132;28;19918;-74
2022/11/23 00:03:47;;;;;;;;;;;8.40;99.90;;;;;;4982169;28;20083;-73
2022/11/23 00:06:13;;;;;;;;;;;8.40;99.90;;;;;;4985878;28;19920;-73
2022/11/23 00:08:38;;;;;;;;;;;8.40;99.90;;;;;;5005597;28;19933;-72
2022/11/23 00:11:04;;;;;;;;;;;8.40;99.90;;;;;;4991660;28;19917;-73
2022/11/23 00:13:29;;;;;;;;;;;8.40;99.90;;;;;;5012366;28;19944;-74
2022/11/23 00:15:55;;;;;;;;;;;8.40;99.90;;;;;;5002676;28;19918;-73
2022/11/23 00:18:20;;;;;;;;;;;8.40;99.90;;;;;;5004872;28;19921;-74
2022/11/23 00:20:46;;;;;;;;;;;8.40;99.90;;;;;;4999286;28;19914;-72
2022/11/23 00:23:11;;;;;;;;;;;8.30;99.90;;;;;;4999222;28;19913;-74
2022/11/23 00:25:37;;;;;;;;;;;8.30;99.90;;;;;;5002805;28;20004;-74
2022/11/23 00:28:02;;;;;;;;;;;8.20;99.90;;;;;;4998718;28;20024;-74
2022/11/23 00:30:28;;;;;;;;;;;8.20;99.90;;;;;;5000342;28;19975;-74
2022/11/23 00:32:54;;;;;;;;;;;8.20;99.90;;;;;;5000336;28;19913;-73
2022/11/23 00:35:20;;;;;;;;;;;8.10;99.90;;;;;;4999836;28;19936;-74
2022/11/23 00:37:45;;;;;;;;;;;8.10;99.90;;;;;;5003554;28;19917;-73
2022/11/23 00:40:11;;;;;;;;;;;8.00;99.90;;;;;;5000601;28;19913;-74
2022/11/23 00:42:37;;;;;;;;;;;8.00;99.90;;;;;;5003911;28;19913;-74
2022/11/23 00:45:02;;;;;;;;;;;8.00;99.90;;;;;;4983975;28;20363;-73
2022/11/23 00:47:28;;;;;;;;;;;8.00;99.90;;;;;;5002983;28;19924;-72
2022/11/23 00:49:53;;;;;;;;;;;8.00;99.90;;;;;;4983089;28;19949;-74
2022/11/23 00:52:19;;;;;;;;;;;8.00;99.90;;;;;;5000353;28;19927;-74
2022/11/23 00:54:44;;;;;;;;;;;8.00;99.90;;;;;;4999014;28;19925;-75
2022/11/23 00:57:10;;;;;;;;;;;8.00;99.90;;;;;;5001574;28;19921;-72
2022/11/23 00:59:35;;;;;;;;;;;8.00;99.90;;;;;;4997430;28;19928;-75
2022/11/23 01:02:01;;;;;;;;;;;8.10;99.90;;;;;;5001142;28;19918;-74
2022/11/23 01:04:27;;;;;;;;;;;8.10;99.90;;;;;;4998651;28;20016;-76
2022/11/23 01:06:56;;;;;;;;;;;8.10;99.90;;;;;;5003151;28;20044;-74
2022/11/23 01:09:25;;;;;;;;;;;8.20;99.90;;;;;;4986240;28;20345;-74
2022/11/23 01:11:54;;;;;;;;;;;8.20;99.90;;;;;;5001150;28;20401;-75
2022/11/23 01:14:20;;;;;;;;;;;8.20;99.90;;;;;;4999864;28;19914;-74
2022/11/23 01:16:46;;;;;;;;;;;8.30;99.90;;;;;;4999013;28;20338;-74
2022/11/23 01:19:13;;;;;;;;;;;8.30;99.90;;;;;;5000489;28;19925;-74
2022/11/23 01:21:38;;;;;;;;;;;8.30;99.90;;;;;;4998442;28;19917;-74
2022/11/23 01:24:05;;;;;;;;;;;8.30;99.90;;;;;;4998160;28;20282;-74
2022/11/23 01:26:30;;;;;;;;;;;8.30;99.90;;;;;;5002531;28;20437;-74
2022/11/23 01:28:56;;;;;;;;;;;8.30;99.90;;;;;;4983433;28;19914;-74
2022/11/23 01:31:22;;;;;;;;;;;8.30;99.90;;;;;;5000478;28;19937;-74
2022/11/23 01:33:51;;;;;;;;;;;8.30;99.90;;;;;;4997073;28;20289;-73
2022/11/23 01:36:18;;;;;;;;;;;8.30;99.90;;;;;;5000191;28;19914;-74
2022/11/23 01:38:44;;;;;;;;;;;8.30;99.90;;;;;;5007195;28;19917;-73
2022/11/23 01:41:13;;;;;;;;;;;8.30;99.90;;;;;;4986497;28;20174;-74
2022/11/23 01:43:38;;;;;;;;;;;8.30;99.90;;;;;;4997720;28;19921;-74
2022/11/23 01:46:05;;;;;;;;;;;8.40;99.90;;;;;;5002503;28;19917;-74
2022/11/23 01:48:38;;;;;;;;;;;8.30;99.90;;;;;;4982403;28;19973;-75
2022/11/23 01:51:09;;;;;;;;;;;8.30;99.90;;;;;;5002069;28;19921;-73
2022/11/23 01:53:36;;;;;;;;;;;8.30;99.90;;;;;;5007278;28;19913;-74
2022/11/23 01:56:03;;;;;;;;;;;8.30;99.90;;;;;;4999443;28;19921;-73
2022/11/23 01:58:30;;;;;;;;;;;8.30;99.90;;;;;;5004436;28;19944;-74
2022/11/23 02:00:56;;;;;;;;;;;8.30;99.90;;;;;;5006172;28;20572;-73
2022/11/23 02:03:22;;;;;;;;;;;8.30;99.90;;;;;;5011554;28;19941;-74
2022/11/23 02:05:49;;;;;;;;;;;8.30;99.90;;;;;;5007300;28;19914;-73
2022/11/23 02:08:16;;;;;;;;;;;8.30;99.90;;;;;;5012024;28;19913;-73
2022/11/23 02:10:41;;;;;;;;;;;8.30;99.90;;;;;;5000518;28;19957;-73
2022/11/23 02:13:09;;;;;;;;;;;8.30;99.90;;;;;;4996610;28;19949;-74
2022/11/23 02:15:35;;;;;;;;;;;8.30;99.90;;;;;;5001944;28;19924;-73
2022/11/23 02:18:01;;;;;;;;;;;8.20;99.90;;;;;;5000722;28;19921;-74
2022/11/23 02:20:27;;;;;;;;;;;8.20;99.90;;;;;;5000576;28;19918;-73
2022/11/23 02:23:03;;;;;;;;;;;8.20;99.90;;;;;;4997962;28;19917;-72
2022/11/23 02:25:53;;;;;;;;;;;8.20;99.90;;;;;;4999410;28;19917;-74
2022/11/23 02:28:21;;;;;;;;;;;8.20;99.90;;;;;;4997756;28;19913;-74
2022/11/23 02:30:48;;;;;;;;;;;8.20;99.90;;;;;;4999913;28;19928;-73
2022/11/23 02:33:14;;;;;;;;;;;8.20;99.90;;;;;;4997902;28;19913;-73
2022/11/23 02:35:49;;;;;;;;;;;8.10;99.90;;;;;;4981191;28;19925;-73
2022/11/23 02:38:15;;;;;;;;;;;8.10;99.90;;;;;;5008359;28;19917;-73
2022/11/23 02:40:41;;;;;;;;;;;8.10;99.90;;;;;;4999587;28;19914;-73
2022/11/23 02:43:06;;;;;;;;;;;8.10;99.90;;;;;;5000063;28;20649;-73
2022/11/23 02:45:34;;;;;;;;;;;8.10;99.90;;;;;;4997042;28;19924;-74
2022/11/23 02:48:00;;;;;;;;;;;8.10;99.90;;;;;;5000287;28;19917;-74
2022/11/23 02:50:25;;;;;;;;;;;8.10;99.90;;;;;;4997755;28;19925;-73
2022/11/23 02:52:51;;;;;;;;;;;8.10;99.90;;;;;;4999276;28;20397;-74
2022/11/23 02:55:16;;;;;;;;;;;8.00;99.90;;;;;;4997843;28;19925;-72
2022/11/23 02:57:42;;;;;;;;;;;8.00;99.90;;;;;;4997937;28;19914;-73
2022/11/23 03:00:08;;;;;;;;;;;8.00;99.90;;;;;;5003473;28;19914;-73
2022/11/23 03:02:33;;;;;;;;;;;7.90;99.90;;;;;;4982450;28;19922;-74
2022/11/23 03:04:59;;;;;;;;;;;7.90;99.90;;;;;;5004219;28;19914;-73
2022/11/23 03:07:24;;;;;;;;;;;8.00;99.90;;;;;;4999945;28;19914;-73
2022/11/23 03:09:50;;;;;;;;;;;8.00;99.90;;;;;;5001509;28;19925;-74
2022/11/23 03:12:15;;;;;;;;;;;8.00;99.90;;;;;;4984497;28;19925;-74
2022/11/23 03:14:41;;;;;;;;;;;8.00;99.90;;;;;;4985040;28;20313;-73
2022/11/23 03:17:06;;;;;;;;;;;8.00;99.90;;;;;;4999812;28;20375;-73
2022/11/23 03:19:32;;;;;;;;;;;8.00;99.90;;;;;;5000325;28;19957;-73
2022/11/23 03:21:57;;;;;;;;;;;8.10;99.90;;;;;;5003793;28;19917;-75
2022/11/23 03:24:23;;;;;;;;;;;8.10;99.90;;;;;;4983794;28;19953;-72
2022/11/23 03:26:48;;;;;;;;;;;8.10;99.90;;;;;;5005652;28;20426;-74
2022/11/23 03:29:14;;;;;;;;;;;8.10;99.90;;;;;;5001781;28;19921;-74
2022/11/23 03:31:39;;;;;;;;;;;8.10;99.90;;;;;;4985717;28;19996;-74
2022/11/23 03:34:05;;;;;;;;;;;8.10;99.90;;;;;;5007990;28;19920;-74
2022/11/23 03:36:30;;;;;;;;;;;8.20;99.90;;;;;;5009564;28;19913;-74
2022/11/23 03:38:56;;;;;;;;;;;8.20;99.90;;;;;;5008095;28;19921;-72
2022/11/23 03:41:21;;;;;;;;;;;8.20;99.90;;;;;;4989178;28;20417;-71
2022/11/23 03:43:47;;;;;;;;;;;8.20;99.90;;;;;;4983255;28;19956;-74
2022/11/23 03:46:12;;;;;;;;;;;8.20;99.90;;;;;;4983129;28;20016;-73
2022/11/23 03:48:37;;;;;;;;;;;8.20;99.90;;;;;;5002850;28;20010;-73
2022/11/23 03:51:03;;;;;;;;;;;8.20;99.90;;;;;;5002802;28;19983;-73
2022/11/23 03:53:28;;;;;;;;;;;8.20;99.90;;;;;;5002963;28;19917;-73
2022/11/23 03:55:57;;;;;;;;;;;8.20;99.90;;;;;;4999906;28;19929;-74
2022/11/23 03:58:23;;;;;;;;;;;8.20;99.90;;;;;;4985093;28;19928;-73
2022/11/23 04:00:48;;;;;;;;;;;8.30;99.90;;;;;;4999987;28;19925;-74
2022/11/23 04:03:14;;;;;;;;;;;8.30;99.90;;;;;;5001522;28;19914;-73
2022/11/23 04:05:39;;;;;;;;;;;8.30;99.90;;;;;;5001627;28;20005;-73
2022/11/23 04:08:05;;;;;;;;;;;8.30;99.90;;;;;;4982091;28;19968;-73
2022/11/23 04:10:30;;;;;;;;;;;8.30;99.90;;;;;;5002630;28;19921;-72
2022/11/23 04:12:56;;;;;;;;;;;8.30;99.90;;;;;;5003475;28;20393;-73
2022/11/23 04:15:21;;;;;;;;;;;8.30;99.90;;;;;;4998839;28;20108;-74
2022/11/23 04:17:47;;;;;;;;;;;8.30;99.90;;;;;;5002391;28;20310;-73
2022/11/23 04:20:12;;;;;;;;;;;8.30;99.90;;;;;;5002407;28;19914;-71
2022/11/23 04:22:38;;;;;;;;;;;8.30;99.90;;;;;;5002676;28;20445;-74
2022/11/23 04:25:03;;;;;;;;;;;8.30;99.90;;;;;;5003999;28;20293;-74
2022/11/23 04:27:29;;;;;;;;;;;8.30;99.90;;;;;;5022274;28;19913;-73
2022/11/23 04:29:54;;;;;;;;;;;8.30;99.90;;;;;;5016493;28;20007;-73
2022/11/23 04:32:20;;;;;;;;;;;8.30;99.90;;;;;;5005207;28;19965;-73
2022/11/23 04:34:45;;;;;;;;;;;8.30;99.90;;;;;;4988262;28;20056;-73
2022/11/23 04:37:11;;;;;;;;;;;8.30;99.90;;;;;;5002093;28;20397;-73
2022/11/23 04:39:36;;;;;;;;;;;8.40;99.90;;;;;;4987283;28;19924;-74
2022/11/23 04:42:02;;;;;;;;;;;8.40;99.90;;;;;;5011185;28;19921;-73
2022/11/23 04:44:27;;;;;;;;;;;8.30;99.90;;;;;;5006176;28;20581;-71
2022/11/23 04:46:53;;;;;;;;;;;8.30;99.90;;;;;;4981448;28;19925;-74
2022/11/23 04:49:18;;;;;;;;;;;8.30;99.90;;;;;;4985596;28;19917;-73
2022/11/23 04:51:44;;;;;;;;;;;8.40;99.90;;;;;;4983974;28;19917;-74
2022/11/23 04:54:09;;;;;;;;;;;8.30;99.90;;;;;;5000124;28;19923;-73
2022/11/23 04:56:35;;;;;;;;;;;8.30;99.90;;;;;;5000004;28;19922;-73
2022/11/23 04:59:00;;;;;;;;;;;8.30;99.90;;;;;;5000948;28;19933;-74
2022/11/23 05:01:26;;;;;;;;;;;8.40;99.90;;;;;;5002095;28;19945;-74
2022/11/23 05:03:51;;;;;;;;;;;8.30;99.90;;;;;;4997873;28;20606;-74
2022/11/23 05:06:17;;;;;;;;;;;8.40;99.90;;;;;;5001498;28;20386;-73
2022/11/23 05:08:42;;;;;;;;;;;8.40;99.90;;;;;;5000385;28;19957;-74
2022/11/23 05:11:08;;;;;;;;;;;8.30;99.90;;;;;;5014701;28;19913;-74
2022/11/23 05:13:34;;;;;;;;;;;8.40;99.90;;;;;;4998518;28;19914;-74
2022/11/23 05:15:59;;;;;;;;;;;8.40;99.90;;;;;;5001248;28;19918;-73
2022/11/23 05:18:25;;;;;;;;;;;8.40;99.90;;;;;;4984121;28;19971;-72
2022/11/23 05:20:50;;;;;;;;;;;8.40;99.90;;;;;;4979307;28;20004;-73
2022/11/23 05:23:16;;;;;;;;;;;8.40;99.90;;;;;;5000225;28;19921;-74
2022/11/23 05:25:41;;;;;;;;;;;8.40;99.90;;;;;;5000847;28;19913;-74
2022/11/23 05:28:13;;;;;;;;;;;8.40;99.90;;;;;;4996208;28;19913;-74
2022/11/23 05:30:38;;;;;;;;;;;8.40;99.90;;;;;;5000972;28;19917;-73
2022/11/23 05:33:03;;;;;;;;;;;8.40;99.90;;;;;;4990502;28;20012;-74
2022/11/23 05:35:29;;;;;;;;;;;8.50;99.90;;;;;;5001328;28;19972;-75
2022/11/23 05:37:55;;;;;;;;;;;8.40;99.90;;;;;;4994509;28;20376;-74
2022/11/23 05:40:20;;;;;;;;;;;8.50;99.90;;;;;;4999320;28;20000;-74
2022/11/23 05:42:46;;;;;;;;;;;8.40;99.90;;;;;;4999807;28;20378;-74
2022/11/23 05:45:11;;;;;;;;;;;8.50;99.90;;;;;;4981146;28;19918;-74
2022/11/23 05:47:37;;;;;;;;;;;8.50;99.90;;;;;;5001572;28;19917;-74
2022/11/23 05:50:02;;;;;;;;;;;8.50;99.90;;;;;;4999049;28;20287;-74
2022/11/23 05:52:28;;;;;;;;;;;8.50;99.90;;;;;;4997869;28;19921;-73
2022/11/23 05:54:53;;;;;;;;;;;8.50;99.90;;;;;;4975498;28;19913;-74
2022/11/23 05:57:21;;;;;;;;;;;8.50;99.90;;;;;;4997890;28;20374;-74
2022/11/23 05:59:47;;;;;;;;;;;8.40;99.90;;;;;;4996220;28;19922;-74
2022/11/23 06:02:12;;;;;;;;;;;8.40;99.90;;;;;;4999866;28;20012;-75
2022/11/23 06:04:38;;;;;;;;;;;8.30;99.90;;;;;;4997930;28;20366;-74
2022/11/23 06:07:04;;;;;;;;;;;8.30;99.90;;;;;;4998049;28;19949;-73
2022/11/23 06:09:29;;;;;;;;;;;8.30;99.90;;;;;;4997747;28;20421;-75
2022/11/23 06:11:55;;;;;;;;;;;8.30;99.90;;;;;;4999588;28;19937;-74
2022/11/23 06:14:20;;;;;;;;;;;8.30;99.90;;;;;;4980978;28;19921;-74
2022/11/23 06:16:46;;;;;;;;;;;8.30;99.90;;;;;;4978830;28;19967;-75
2022/11/23 06:19:11;;;;;;;;;;;8.20;99.90;;;;;;4998644;28;19990;-74
2022/11/23 06:21:37;;;;;;;;;;;8.20;99.90;;;;;;4996543;28;20034;-72
2022/11/23 06:24:02;;;;;;;;;;;8.20;99.90;;;;;;5000308;28;19914;-74
2022/11/23 06:26:28;;;;;;;;;;;8.20;99.90;;;;;;4993320;28;19975;-74
2022/11/23 06:28:53;;;;;;;;;;;8.10;99.90;;;;;;5000991;28;19920;-74
2022/11/23 06:31:19;;;;;;;;;;;8.10;99.90;;;;;;5011164;28;20011;-73
2022/11/23 06:33:44;;;;;;;;;;;8.10;99.90;;;;;;5005808;28;20364;-72
2022/11/23 06:36:10;;;;;;;;;;;8.10;99.90;;;;;;5024838;28;20378;-74
2022/11/23 06:38:36;;;;;;;;;;;8.20;99.90;;;;;;5008793;28;20007;-74
2022/11/23 06:41:02;;;;;;;;;;;8.20;99.90;;;;;;5007120;28;20373;-74
2022/11/23 06:43:27;;;;;;;;;;;8.10;99.90;;;;;;5005686;28;19948;-72
2022/11/23 06:45:53;;;;;;;;;;;8.10;99.90;;;;;;5009607;28;20007;-71
2022/11/23 06:48:19;;;;;;;;;;;8.10;99.90;;;;;;4998848;28;19948;-73
2022/11/23 06:50:45;;;;;;;;;;;8.00;99.90;;;;;;4996551;28;19941;-74
2022/11/23 06:53:13;;;;;;;;;;;8.00;99.90;;;;;;5003246;28;19921;-74
2022/11/23 06:55:39;;;;;;;;;;;7.90;99.90;;;;;;5008487;28;19913;-74
2022/11/23 06:58:05;;;;;;;;;;;7.80;99.90;;;;;;5008470;28;19943;-73
2022/11/23 07:00:31;;;;;;;;;;;7.80;99.90;;;;;;5008025;28;19917;-72
2022/11/23 07:02:56;;;;;;;;;;;7.80;99.90;;;;;;5004834;28;19923;-72
2022/11/23 07:05:22;;;;;;;;;;;7.70;99.90;;;;;;5009697;28;19923;-71
2022/11/23 07:07:47;;;;;;;;;;;7.70;99.90;;;;;;4996892;28;19961;-74
2022/11/23 07:10:13;;;;;;;;;;;7.60;99.90;;;;;;5000611;28;19917;-73
2022/11/23 07:12:39;;;;;;;;;;;7.60;99.90;;;;;;5003098;28;19963;-74
2022/11/23 07:15:06;;;;;;;;;;;7.60;99.90;;;;;;4995104;28;19917;-74
2022/11/23 07:17:31;;;;;;;;;;;7.60;99.90;;;;;;5012002;28;19953;-73
2022/11/23 07:19:56;;;;;;;;;;;7.50;99.90;;;;;;5002495;28;19961;-73
2022/11/23 07:22:22;;;;;;;;;;;7.50;99.90;;;;;;5004415;28;19918;-73
2022/11/23 07:24:47;;;;;;;;;;;7.50;99.90;;;;;;5003044;28;19917;-73
2022/11/23 07:27:15;;;;;;;;;;;7.50;99.90;;;;;;5008572;28;19940;-73
2022/11/23 07:29:40;;;;;;;;;;;7.60;99.90;;;;;;4989765;28;19986;-72
2022/11/23 07:32:07;;;;;;;;;;;7.60;99.90;;;;;;4988455;28;20410;-73
2022/11/23 07:34:32;;;;;;;;;;;7.60;99.90;;;;;;4992458;28;19918;-73
2022/11/23 07:36:58;;;;;;;;;;;7.60;99.90;;;;;;4984776;28;20047;-75
2022/11/23 07:39:23;;;;;;;;;;;7.70;99.90;;;;;;5003220;28;19925;-73
2022/11/23 07:41:49;;;;;;;;;;;7.70;99.90;;;;;;4994578;28;20482;-74
2022/11/23 07:44:14;;;;;;;;;;;7.80;99.90;;;;;;4999828;28;19917;-72
2022/11/23 07:46:40;;;;;;;;;;;7.80;99.90;;;;;;5002969;28;19928;-73
2022/11/23 07:49:05;;;;;;;;;;;7.90;99.90;;;;;;5002270;28;19922;-72
2022/11/23 07:51:31;;;;;;;;;;;7.80;99.90;;;;;;5003768;28;19940;-73
2022/11/23 07:53:56;;;;;;;;;;;7.90;99.90;;;;;;5008612;28;19913;-74
2022/11/23 07:56:22;;;;;;;;;;;7.90;99.90;;;;;;5007977;28;19940;-73
2022/11/23 07:58:48;;;;;;;;;;;7.90;99.90;;;;;;5007020;28;20405;-72
2022/11/23 08:01:16;;;;;;;;;;;7.90;99.90;;;;;;5000247;28;20043;-73
2022/11/23 08:03:42;;;;;;;;;;;8.00;99.90;;;;;;5003277;28;19944;-73
2022/11/23 08:06:11;;;;;;;;;;;8.00;99.90;;;;;;5001162;28;20370;-72
2022/11/23 08:08:37;;;;;;;;;;;8.00;99.90;;;;;;5003032;28;19948;-73
2022/11/23 08:11:06;;;;;;;;;;;8.10;99.90;;;;;;4990334;28;20024;-73
2022/11/23 08:13:33;;;;;;;;;;;8.10;99.90;;;;;;5007194;28;19947;-74
2022/11/23 08:15:59;;;;;;;;;;;8.10;99.90;;;;;;5008143;28;19913;-74
2022/11/23 08:18:25;;;;;;;;;;;8.10;99.90;;;;;;5006542;28;20053;-73
2022/11/23 08:20:51;;;;;;;;;;;8.10;99.90;;;;;;5008826;28;20004;-74
2022/11/23 08:23:16;;;;;;;;;;;8.20;99.90;;;;;;5007244;28;19921;-73
2022/11/23 08:25:41;;;;;;;;;;;8.20;99.90;;;;;;5007630;28;19924;-72
2022/11/23 08:28:07;;;;;;;;;;;8.30;99.90;;;;;;5007775;28;19968;-74
2022/11/23 08:30:33;;;;;;;;;;;8.30;99.90;;;;;;5010817;28;20012;-74
2022/11/23 08:33:01;;;;;;;;;;;8.30;99.90;;;;;;4999725;28;19969;-73
2022/11/23 08:35:27;;;;;;;;;;;8.30;99.90;;;;;;5008671;28;20776;-73
2022/11/23 08:37:52;;;;;;;;;;;8.30;99.90;;;;;;5006297;28;19949;-72
2022/11/23 08:40:18;;;;;;;;;;;8.30;99.90;;;;;;5007392;28;19918;-73
2022/11/23 08:42:43;;;;;;;;;;;8.30;99.90;;;;;;5007580;28;19917;-73
2022/11/23 08:45:09;;;;;;;;;;;8.30;99.90;;;;;;4999777;28;19917;-72
2022/11/23 08:47:34;;;;;;;;;;;8.40;99.90;;;;;;4996001;28;20008;-73
2022/11/23 08:50:00;;;;;;;;;;;8.40;99.90;;;;;;4997376;28;19913;-73
2022/11/23 08:52:25;;;;;;;;;;;8.40;99.90;;;;;;5007183;28;20361;-74
2022/11/23 08:54:51;;;;;;;;;;;8.50;99.90;;;;;;5015721;28;19917;-73
2022/11/23 08:57:17;;;;;;;;;;;8.60;99.90;;;;;;5020388;28;19920;-74
2022/11/23 08:59:42;;;;;;;;;;;8.60;99.90;;;;;;5016184;28;19988;-72
2022/11/23 09:02:11;;;;;;;;;;;8.60;99.90;;;;;;5018106;28;19918;-74
2022/11/23 09:04:36;;;;;;;;;;;8.60;99.90;;;;;;4999829;28;19918;-69
2022/11/23 09:07:02;;;;;;;;;;;8.60;99.90;;;;;;5001778;28;20366;-75
2022/11/23 09:09:28;;;;;;;;;;;8.70;99.90;;;;;;5005399;28;20261;-74
2022/11/23 09:11:53;;;;;;;;;;;8.80;99.90;;;;;;4995711;28;19928;-72
2022/11/23 09:14:20;;;;;;;;;;;8.80;99.90;;;;;;5003893;28;19921;-74
2022/11/23 09:16:46;;;;;;;;;;;8.80;99.90;;;;;;5006355;28;19925;-75
2022/11/23 09:19:12;;;;;;;;;;;8.80;99.90;;;;;;5005797;28;19921;-74
2022/11/23 09:21:38;;;;;;;;;;;8.90;99.90;;;;;;5003863;28;19924;-73
2022/11/23 09:24:03;;;;;;;;;;;9.00;99.90;;;;;;4991861;28;20394;-75
2022/11/23 09:26:30;;;;;;;;;;;9.10;99.90;;;;;;5006482;28;19921;-72
2022/11/23 09:28:56;;;;;;;;;;;9.10;99.90;;;;;;4999722;28;19917;-73
2022/11/23 09:31:22;;;;;;;;;;;9.20;99.90;;;;;;5006075;28;19918;-73
2022/11/23 09:33:50;;;;;;;;;;;9.10;99.90;;;;;;5008650;28;19995;-73
2022/11/23 09:36:16;;;;;;;;;;;9.20;99.90;;;;;;5009029;28;19926;-73
2022/11/23 09:38:41;;;;;;;;;;;9.10;99.90;;;;;;5007508;28;19921;-74
2022/11/23 09:41:22;;;;;;;;;;;9.10;99.90;;;;;;5005600;28;19918;-74
2022/11/23 09:43:55;;;;;;;;;;;9.10;99.90;;;;;;5003951;28;19917;-75
2022/11/23 09:46:26;;;;;;;;;;;9.20;99.90;;;;;;5006374;28;19917;-74
2022/11/23 09:49:07;;;;;;;;;;;9.10;99.90;;;;;;5004813;28;19948;-74
2022/11/23 09:51:34;;;;;;;;;;;9.10;99.90;;;;;;5005443;28;20437;-74
2022/11/23 09:54:03;;;;;;;;;;;9.10;99.90;;;;;;5005389;28;20008;-75
2022/11/23 09:56:31;;;;;;;;;;;9.10;99.90;;;;;;4996269;28;20700;-74
2022/11/23 09:58:58;;;;;;;;;;;9.10;99.90;;;;;;5005280;28;19921;-74
2022/11/23 10:01:24;;;;;;;;;;;9.10;99.90;;;;;;4999712;28;19921;-72
2022/11/23 10:03:49;;;;;;;;;;;9.10;99.90;;;;;;5001852;28;19971;-72
2022/11/23 10:06:15;;;;;;;;;;;9.20;99.90;;;;;;4982213;28;19972;-73
2022/11/23 10:08:46;;;;;;;;;;;9.20;99.90;;;;;;5008206;28;19923;-75
2022/11/23 10:11:37;;;;;;;;;;;9.20;99.90;;;;;;4987424;28;20024;-74
2022/11/23 10:14:30;;;;;;;;;;;9.20;99.90;;;;;;5000880;28;19971;-75
2022/11/23 10:17:02;;;;;;;;;;;9.30;99.90;;;;;;4999033;28;20358;-74
2022/11/23 10:19:27;;;;;;;;;;;9.30;99.90;;;;;;4997550;28;19925;-74
2022/11/23 10:22:11;;;;;;;;;;;9.30;99.90;;;;;;5002347;28;20712;-75
2022/11/23 10:24:44;;;;;;;;;;;9.40;99.90;;;;;;5003124;28;19924;-74
2022/11/23 10:27:13;;;;;;;;;;;9.40;99.90;;;;;;5003349;28;20301;-73
2022/11/23 10:29:38;;;;;;;;;;;9.40;99.90;;;;;;4993759;28;19987;-74
2022/11/23 10:32:06;;;;;;;;;;;9.50;99.90;;;;;;5004926;28;19917;-73
2022/11/23 10:34:34;;;;;;;;;;;9.40;99.90;;;;;;5004423;28;20347;-74
2022/11/23 10:36:59;;;;;;;;;;;9.50;99.90;;;;;;5005136;28;19917;-72
2022/11/23 10:39:26;;;;;;;;;;;9.40;99.90;;;;;;4994046;28;19928;-72
2022/11/23 10:41:52;;;;;;;;;;;9.40;99.90;;;;;;5005649;28;20032;-74
2022/11/23 10:44:27;;;;;;;;;;;9.50;99.90;;;;;;5002807;28;20098;-75
2022/11/23 10:46:53;;;;;;;;;;;9.60;99.90;;;;;;5006022;28;19923;-74
2022/11/23 10:49:23;;;;;;;;;;;9.70;99.90;;;;;;5004980;28;19917;-74
2022/11/23 10:51:52;;;;;;;;;;;9.80;99.90;;;;;;4995336;28;19917;-74
2022/11/23 10:54:20;;;;;;;;;;;9.80;99.90;;;;;;4992702;28;19928;-74
2022/11/23 10:56:49;;;;;;;;;;;9.80;99.90;;;;;;5003380;28;19925;-74
2022/11/23 10:59:25;;;;;;;;;;;9.70;99.90;;;;;;5004044;28;19956;-74
2022/11/23 11:01:59;;;;;;;;;;;9.70;99.90;;;;;;4994010;28;19940;-74
2022/11/23 11:04:25;;;;;;;;;;;9.70;99.90;;;;;;4993901;28;19921;-74
2022/11/23 11:06:50;;;;;;;;;;;9.60;99.90;;;;;;4996870;28;19999;-74
2022/11/23 11:09:20;;;;;;;;;;;9.70;99.90;;;;;;5003928;28;19921;-74
2022/11/23 11:11:46;;;;;;;;;;;9.60;99.90;;;;;;5004212;28;19963;-74
2022/11/23 11:14:16;;;;;;;;;;;9.60;99.90;;;;;;5004042;28;19925;-74
2022/11/23 11:16:52;;;;;;;;;;;9.50;99.90;;;;;;5003419;28;19997;-72
2022/11/23 11:19:27;;;;;;;;;;;9.40;99.90;;;;;;4995044;28;19938;-74
2022/11/23 11:21:53;;;;;;;;;;;9.40;99.90;;;;;;5007461;28;19917;-74
2022/11/23 11:24:26;;;;;;;;;;;9.40;99.90;;;;;;5008376;28;19913;-72
2022/11/23 11:26:56;;;;;;;;;;;9.40;99.90;;;;;;5008181;28;19929;-73
2022/11/23 11:29:32;;;;;;;;;;;9.40;99.90;;;;;;5007728;28;20040;-73
2022/11/23 11:32:03;;;;;;;;;;;9.40;99.90;;;;;;5008273;28;20476;-73
2022/11/23 11:34:43;;;;;;;;;;;9.40;99.90;;;;;;5007424;28;19921;-73
2022/11/23 11:37:28;;;;;;;;;;;9.30;99.90;;;;;;5006368;28;19996;-73
2022/11/23 11:39:56;;;;;;;;;;;9.30;99.90;;;;;;5007436;28;19925;-74
2022/11/23 11:42:42;;;;;;;;;;;9.30;99.90;;;;;;4995520;28;20382;-73
2022/11/23 11:45:14;;;;;;;;;;;9.30;99.90;;;;;;5007311;28;20402;-73
2022/11/23 11:47:47;;;;;;;;;;;9.30;99.90;;;;;;4997529;28;19924;-72
2022/11/23 11:50:19;;;;;;;;;;;9.30;99.90;;;;;;5011502;28;19995;-73
2022/11/23 11:52:46;;;;;;;;;;;9.30;99.90;;;;;;5006712;28;20137;-72
2022/11/23 11:55:38;;;;;;;;;;;9.30;99.90;;;;;;5007653;28;19920;-74
2022/11/23 11:58:08;;;;;;;;;;;9.30;99.90;;;;;;4967796;28;19927;-73
2022/11/23 12:00:35;;;;;;;;;;;9.30;99.90;;;;;;4997760;28;19987;-73
2022/11/23 12:03:19;;;;;;;;;;;9.40;99.90;;;;;;5008970;28;19924;-74
2022/11/23 12:05:52;;;;;;;;;;;9.40;99.90;;;;;;5008867;28;19921;-74
2022/11/23 12:08:25;;;;;;;;;;;9.40;99.90;;;;;;5007244;28;20288;-73
2022/11/23 12:10:58;;;;;;;;;;;9.40;99.90;;;;;;5006705;28;20010;-72
2022/11/23 12:13:28;;;;;;;;;;;9.50;99.90;;;;;;5007487;28;20280;-72
2022/11/23 12:16:09;;;;;;;;;;;9.50;99.90;;;;;;5007843;28;20396;-72
2022/11/23 12:18:41;;;;;;;;;;;9.50;99.90;;;;;;5005282;28;20563;-74
2022/11/23 12:21:12;;;;;;;;;;;9.50;99.90;;;;;;5007389;28;19948;-73
2022/11/23 12:23:53;;;;;;;;;;;9.50;99.90;;;;;;4997158;28;20036;-72
2022/11/23 12:26:22;;;;;;;;;;;9.50;99.90;;;;;;5007009;28;20017;-72
2022/11/23 12:28:56;;;;;;;;;;;9.50;99.90;;;;;;5007535;28;19921;-73
2022/11/23 12:31:25;;;;;;;;;;;9.60;99.90;;;;;;5006705;28;19956;-74
2022/11/23 12:34:02;;;;;;;;;;;9.60;99.90;;;;;;5006192;28;20293;-73
2022/11/23 12:36:47;;;;;;;;;;;9.60;99.90;;;;;;5005748;28;20392;-74
2022/11/23 12:39:20;;;;;;;;;;;9.60;99.90;;;;;;5005858;28;19921;-72
2022/11/23 12:41:55;;;;;;;;;;;9.60;99.90;;;;;;5006908;28;19920;-73
2022/11/23 12:44:23;;;;;;;;;;;9.60;99.90;;;;;;5006523;28;19917;-72
2022/11/23 12:46:53;;;;;;;;;;;9.60;99.90;;;;;;4996985;28;19917;-73
2022/11/23 12:49:31;;;;;;;;;;;9.60;99.90;;;;;;5011532;28;19928;-74
2022/11/23 12:52:09;;;;;;;;;;;9.60;99.90;;;;;;5014099;28;19917;-74
2022/11/23 12:54:37;;;;;;;;;;;9.60;99.90;;;;;;5004785;28;19921;-72
2022/11/23 12:57:13;;;;;;;;;;;9.60;99.90;;;;;;5007363;28;19959;-72
2022/11/23 12:59:53;;;;;;;;;;;9.60;99.90;;;;;;5006227;28;19917;-74
2022/11/23 13:02:37;;;;;;;;;;;9.70;99.90;;;;;;5006016;28;19948;-73
2022/11/23 13:05:11;;;;;;;;;;;9.70;99.90;;;;;;5003102;28;19918;-74
2022/11/23 13:07:43;;;;;;;;;;;9.80;99.90;;;;;;5002320;28;20010;-74
2022/11/23 13:10:27;;;;;;;;;;;9.80;99.90;;;;;;4993851;28;19914;-76
2022/11/23 13:12:58;;;;;;;;;;;9.80;99.90;;;;;;5004703;28;20301;-74
2022/11/23 13:15:45;;;;;;;;;;;9.90;99.90;;;;;;5004305;28;19949;-72
2022/11/23 13:18:29;;;;;;;;;;;9.80;99.90;;;;;;4999117;28;19917;-73
2022/11/23 13:21:01;;;;;;;;;;;9.80;99.90;;;;;;5003296;28;19947;-74
2022/11/23 13:23:27;;;;;;;;;;;9.90;99.90;;;;;;4997590;28;19922;-72
2022/11/23 13:26:10;;;;;;;;;;;9.90;99.90;;;;;;5004149;28;19921;-74
2022/11/23 13:28:36;;;;;;;;;;;9.90;99.90;;;;;;5005006;28;19913;-74
2022/11/23 13:31:14;;;;;;;;;;;9.80;99.90;;;;;;5011047;28;19924;-73
2022/11/23 13:33:40;;;;;;;;;;;9.70;99.90;;;;;;5018346;28;19917;-73
2022/11/23 13:36:09;;;;;;;;;;;9.50;99.90;;;;;;5019273;28;19913;-72
2022/11/23 13:38:35;;;;;;;;;;;9.40;99.90;;;;;;5002254;28;19968;-73
2022/11/23 13:41:01;;;;;;;;;;;9.20;99.90;;;;;;5006207;28;19969;-73
2022/11/23 13:43:31;;;;;;;;;;;9.00;99.90;;;;;;5005715;28;20016;-71
2022/11/23 13:46:15;;;;;;;;;;;8.90;99.90;;;;;;5005671;28;19964;-72
2022/11/23 13:48:45;;;;;;;;;;;8.80;99.90;;;;;;5005464;28;19921;-72
2022/11/23 13:51:11;;;;;;;;;;;8.80;99.90;;;;;;5007059;28;19922;-73
2022/11/23 13:53:40;;;;;;;;;;;8.70;99.90;;;;;;5010015;28;19921;-72
2022/11/23 13:56:35;;;;;;;;;;;8.70;99.90;;;;;;5008293;28;19929;-73
2022/11/23 13:59:19;;;;;;;;;;;8.60;99.90;;;;;;4988655;28;19921;-72
2022/11/23 14:01:57;;;;;;;;;;;8.60;99.90;;;;;;5005158;28;19944;-73
2022/11/23 14:04:23;;;;;;;;;;;8.50;99.90;;;;;;4993790;28;19925;-72
2022/11/23 14:07:02;;;;;;;;;;;8.50;99.90;;;;;;5005311;28;19913;-69
2022/11/23 14:09:31;;;;;;;;;;;8.50;99.90;;;;;;5004342;28;20267;-70
2022/11/23 14:12:06;;;;;;;;;;;8.50;99.90;;;;;;5007172;28;20039;-72
2022/11/23 14:14:46;;;;;;;;;;;8.40;99.90;;;;;;5006737;28;19952;-73
2022/11/23 14:17:23;;;;;;;;;;;8.50;99.90;;;;;;5006003;28;20381;-72
2022/11/23 14:20:07;;;;;;;;;;;8.40;99.90;;;;;;5005658;28;19939;-70
2022/11/23 14:22:52;;;;;;;;;;;8.40;99.90;;;;;;5002402;28;19921;-72
2022/11/23 14:25:17;;;;;;;;;;;8.40;99.90;;;;;;5005006;28;19917;-72
2022/11/23 14:27:55;;;;;;;;;;;8.40;99.90;;;;;;5004539;28;20506;-71
2022/11/23 14:30:27;;;;;;;;;;;8.40;99.90;;;;;;5000497;28;20582;-72
2022/11/23 14:32:53;;;;;;;;;;;8.40;99.90;;;;;;5005933;28;19913;-72
2022/11/23 14:35:36;;;;;;;;;;;8.40;99.90;;;;;;4999462;28;19921;-73
2022/11/23 14:38:20;;;;;;;;;;;8.40;99.90;;;;;;4989834;28;19933;-72